Weather at Calgary/Okotoks (GG Ranch) Heliport

Public forecast

Using degrees Celsius for public forecast. Weather courtesy of forecast.io.

Closest aviation weather report (METAR) to Calgary/Okotoks (GG Ranch) Heliport

Closest report is Calgary International Airport, 22.5 nm (41.6 km) N.

2024/05/20 22:00 (retrieved 42 minutes ago)

CYYC 202200Z 33014G22KT 15SM BKN030 OVC040 09/02 A2994 RMK SF5SC3 SLP168

Closest aviation forecast (TAF) to Calgary/Okotoks (GG Ranch) Heliport

Closest forecast is Calgary International Airport, 22.5 nm (41.6 km) N.

2024/05/20 21:45 (retrieved 57 minutes ago)

TAF CYYC 202040Z 2021/2118 32012G22KT P6SM SCT020 BKN030 TEMPO 2021/2104 5SM -SHRA BR OVC020 BECMG 2022/2024 36008KT FM210400 20005KT P6SM SCT006 BKN080 PROB30 2107/2110 2SM BR OVC006 FM211000 27006KT P6SM FEW006 SCT080 FM211700 25005KT P6SM FEW080 RMK NXT FCST BY 210000Z